createdAt,value
2024-05-09T00:01:30.334Z,5.10
2024-05-09T00:06:35.164Z,5.20
2024-05-09T00:11:42.743Z,5.00
2024-05-09T00:16:48.515Z,5.20
2024-05-09T00:21:53.514Z,4.70
2024-05-09T00:27:00.990Z,4.90
2024-05-09T00:32:09.586Z,5.23
2024-05-09T00:37:14.323Z,4.73
2024-05-09T00:42:21.644Z,4.30
2024-05-09T00:47:26.760Z,5.07
2024-05-09T00:52:32.689Z,4.77
2024-05-09T00:57:40.611Z,5.47
2024-05-09T01:02:45.384Z,4.30
2024-05-09T01:07:50.291Z,4.23
2024-05-09T01:12:58.049Z,4.43
2024-05-09T01:18:04.482Z,4.53
2024-05-09T01:23:12.638Z,4.57
2024-05-09T01:28:18.204Z,4.50
2024-05-09T01:33:23.121Z,4.97
2024-05-09T01:38:30.741Z,4.50
2024-05-09T01:43:35.579Z,4.20
2024-05-09T01:48:40.350Z,4.40
2024-05-09T01:53:48.346Z,4.47
2024-05-09T01:58:53.073Z,4.77
2024-05-09T02:04:00.905Z,4.70
2024-05-09T02:09:08.322Z,4.70
2024-05-09T02:14:13.444Z,3.90
2024-05-09T02:19:18.536Z,4.40
2024-05-09T02:24:26.233Z,4.50
2024-05-09T02:29:31.141Z,4.30
2024-05-09T02:34:36.003Z,4.60
2024-05-09T02:39:43.460Z,4.60
2024-05-09T02:44:48.281Z,4.80
2024-05-09T02:49:53.096Z,4.47
2024-05-09T02:55:00.494Z,4.87
2024-05-09T03:00:07.635Z,4.60
2024-05-09T03:05:12.899Z,4.93
2024-05-09T03:10:25.560Z,4.67
2024-05-09T03:15:33.652Z,4.53
2024-05-09T03:20:39.236Z,4.77
2024-05-09T03:25:46.946Z,4.13
2024-05-09T03:30:52.121Z,4.73
2024-05-09T03:35:56.870Z,4.27
2024-05-09T03:41:04.252Z,4.30
2024-05-09T03:46:09.064Z,5.20
2024-05-09T03:51:13.911Z,5.90
2024-05-09T03:56:21.389Z,5.97
2024-05-09T04:01:26.794Z,6.33
2024-05-09T04:06:31.751Z,6.10
2024-05-09T04:11:39.259Z,7.17
2024-05-09T04:16:44.471Z,6.13
2024-05-09T04:21:49.316Z,5.80
2024-05-09T04:26:56.766Z,6.17
2024-05-09T04:32:01.672Z,5.43
2024-05-09T04:37:07.250Z,5.43
2024-05-09T04:42:14.808Z,4.97
2024-05-09T04:47:19.775Z,4.87
2024-05-09T04:52:25.132Z,4.97
2024-05-09T04:57:32.623Z,5.30
2024-05-09T05:02:37.601Z,4.03
2024-05-09T05:07:42.694Z,5.57
2024-05-09T05:13:23.298Z,5.63
2024-05-09T05:18:39.037Z,5.27
2024-05-09T05:23:53.762Z,5.47
2024-05-09T05:29:12.154Z,4.93
2024-05-09T05:34:26.290Z,5.87
2024-05-09T05:39:41.995Z,6.43
2024-05-09T05:45:00.771Z,7.53
2024-05-09T05:50:27.487Z,7.07
2024-05-09T05:55:54.768Z,6.83
2024-05-09T06:01:14.532Z,7.97
2024-05-09T06:06:31.833Z,7.43
2024-05-09T06:11:52.063Z,6.83
2024-05-09T06:17:13.280Z,5.87
2024-05-09T06:22:30.037Z,6.77
2024-05-09T06:27:44.686Z,7.80
2024-05-09T06:33:02.197Z,7.90
2024-05-09T06:38:18.628Z,7.83
2024-05-09T06:43:39.480Z,8.57
2024-05-09T06:49:00.237Z,8.33
2024-05-09T06:54:17.936Z,8.43
2024-05-09T06:59:33.982Z,9.40
2024-05-09T07:04:56.102Z,9.97
2024-05-09T07:10:21.572Z,9.10
2024-05-09T07:15:42.132Z,8.27
2024-05-09T07:21:03.132Z,9.17
2024-05-09T07:26:18.411Z,9.47
2024-05-09T07:31:35.002Z,9.10
2024-05-09T07:36:56.109Z,9.33
2024-05-09T07:42:11.531Z,10.10
2024-05-09T07:48:57.201Z,10.83
2024-05-09T07:53:36.618Z,10.53
2024-05-09T07:58:44.004Z,9.73
2024-05-09T08:04:00.691Z,10.50
2024-05-09T08:09:22.139Z,10.93
2024-05-09T08:14:45.425Z,9.75
2024-05-09T08:19:59.159Z,10.95
2024-05-09T08:25:21.112Z,10.50
2024-05-09T08:30:38.209Z,10.43
2024-05-09T08:35:52.678Z,10.43
2024-05-09T08:41:14.081Z,9.63
2024-05-09T08:46:39.807Z,9.98
2024-05-09T08:51:55.551Z,8.82
2024-05-09T08:57:18.767Z,8.50
2024-05-09T09:02:34.653Z,7.22
2024-05-09T09:07:53.650Z,8.75
2024-05-09T09:13:17.476Z,9.32
2024-05-09T09:18:35.248Z,9.05
2024-05-09T09:23:54.576Z,9.02
2024-05-09T09:29:15.007Z,7.97
2024-05-09T09:34:35.588Z,10.23
2024-05-09T09:39:48.971Z,9.88
2024-05-09T09:45:04.945Z,9.75
2024-05-09T09:50:16.790Z,8.65
2024-05-09T09:55:26.340Z,9.65
2024-05-09T10:00:35.024Z,9.27
2024-05-09T10:05:42.199Z,9.27
2024-05-09T10:10:50.131Z,9.65
2024-05-09T10:15:58.055Z,8.43
2024-05-09T10:21:02.889Z,8.50
2024-05-09T10:26:07.892Z,9.65
2024-05-09T10:31:18.196Z,8.93
2024-05-09T10:36:24.664Z,9.02
2024-05-09T10:41:29.477Z,7.93
2024-05-09T10:46:36.978Z,9.05
2024-05-09T10:51:42.246Z,8.70
2024-05-09T10:56:47.153Z,8.98
2024-05-09T11:01:55.183Z,8.73
2024-05-09T11:07:04.560Z,9.25
2024-05-09T11:12:10.901Z,8.32
2024-05-09T11:17:18.464Z,9.55
2024-05-09T11:22:25.225Z,9.05
2024-05-09T11:27:30.096Z,8.55
2024-05-09T11:32:40.498Z,8.30
2024-05-09T11:37:45.367Z,8.27
2024-05-09T11:42:52.961Z,7.40
2024-05-09T11:48:00.962Z,8.52
2024-05-09T11:53:05.843Z,7.35
2024-05-09T11:58:12.540Z,7.75
2024-05-09T12:03:20.844Z,10.18
2024-05-09T12:08:25.993Z,8.15
2024-05-09T12:13:31.036Z,9.75
2024-05-09T12:18:38.498Z,7.53
2024-05-09T12:23:43.421Z,7.88
2024-05-09T12:28:48.262Z,8.38
2024-05-09T12:33:56.034Z,11.23
2024-05-09T12:39:01.046Z,6.95
2024-05-09T12:44:05.858Z,10.38
2024-05-09T12:49:17.254Z,9.93
2024-05-09T12:54:22.944Z,9.63
2024-05-09T12:59:27.893Z,8.75
2024-05-09T13:04:35.526Z,11.05
2024-05-09T13:09:40.677Z,10.43
2024-05-09T13:14:45.469Z,9.50
2024-05-09T13:19:53.027Z,12.35
2024-05-09T13:24:57.749Z,10.02
2024-05-09T13:30:02.484Z,9.50
2024-05-09T13:35:10.919Z,11.05
2024-05-09T13:40:23.265Z,10.60
2024-05-09T13:45:32.266Z,10.32
2024-05-09T13:50:39.858Z,10.95
2024-05-09T13:55:44.566Z,11.05
2024-05-09T14:00:50.620Z,10.50
2024-05-09T14:05:58.764Z,11.90
2024-05-09T14:11:03.715Z,13.27
2024-05-09T14:16:09.677Z,11.95
2024-05-09T14:21:17.199Z,10.50
2024-05-09T14:26:22.036Z,10.88
2024-05-09T14:31:27.028Z,11.82
2024-05-09T14:36:35.655Z,10.63
2024-05-09T14:41:41.579Z,10.23
2024-05-09T14:46:46.533Z,11.07
2024-05-09T14:51:54.100Z,12.25
2024-05-09T14:56:59.011Z,13.40
2024-05-09T15:02:03.988Z,14.13
2024-05-09T15:08:02.564Z,13.85
2024-05-09T15:13:29.122Z,14.77
2024-05-09T15:18:34.260Z,17.30
2024-05-09T15:23:39.325Z,17.25
2024-05-09T15:28:46.740Z,16.63
2024-05-09T15:33:51.764Z,17.70
2024-05-09T15:38:58.062Z,18.80
2024-05-09T15:44:05.579Z,16.42
2024-05-09T15:49:12.047Z,17.23
2024-05-09T15:54:16.966Z,17.90
2024-05-09T15:59:24.473Z,16.60
2024-05-09T16:04:29.578Z,14.50
2024-05-09T16:09:34.587Z,15.70
2024-05-09T16:14:42.195Z,16.30
2024-05-09T16:19:47.183Z,14.55
2024-05-09T16:24:52.037Z,15.63
2024-05-09T16:30:04.139Z,17.27
2024-05-09T16:35:11.565Z,16.38
2024-05-09T16:40:25.304Z,16.80
2024-05-09T16:45:44.103Z,16.40
2024-05-09T16:50:49.049Z,16.35
2024-05-09T16:55:54.758Z,18.15
2024-05-09T17:01:02.295Z,16.13
2024-05-09T17:06:07.273Z,17.63
2024-05-09T17:11:13.299Z,16.77
2024-05-09T17:16:21.079Z,15.65
2024-05-09T17:21:26.259Z,15.27
2024-05-09T17:26:32.504Z,16.48
2024-05-09T17:31:39.908Z,16.30
2024-05-09T17:36:45.012Z,16.20
2024-05-09T17:41:49.794Z,18.27
2024-05-09T17:47:02.499Z,16.55
2024-05-09T17:58:49.219Z,17.35
2024-05-09T18:03:56.837Z,16.73
2024-05-09T18:09:01.674Z,20.67
2024-05-09T18:14:06.778Z,18.52
2024-05-09T18:19:17.594Z,17.80
2024-05-09T18:24:23.074Z,19.98
2024-05-09T18:29:28.000Z,24.30
2024-05-09T18:34:35.582Z,17.08
2024-05-09T18:45:46.078Z,17.83
2024-05-09T18:50:54.242Z,17.95
2024-05-09T18:55:59.415Z,25.95
2024-05-09T19:01:04.611Z,17.55
2024-05-09T19:06:12.130Z,16.80
2024-05-09T19:11:16.964Z,17.42
2024-05-09T19:16:25.085Z,18.38
2024-05-09T19:21:32.857Z,16.95
2024-05-09T19:26:37.912Z,16.60
2024-05-09T19:31:45.456Z,18.05
2024-05-09T19:36:53.031Z,17.65
2024-05-09T19:41:57.872Z,18.77
2024-05-09T19:47:02.605Z,17.67
2024-05-09T19:52:10.414Z,18.35
2024-05-09T19:57:15.533Z,18.83
2024-05-09T20:02:20.915Z,19.10
2024-05-09T20:07:28.564Z,17.27
2024-05-09T20:12:33.374Z,19.10
2024-05-09T20:17:38.158Z,18.88
2024-05-09T20:22:45.755Z,17.42
2024-05-09T20:27:50.544Z,16.23
2024-05-09T20:32:55.430Z,14.05
2024-05-09T20:38:05.949Z,13.90
2024-05-09T20:43:11.812Z,15.13
2024-05-09T20:48:17.027Z,16.10
2024-05-09T20:53:24.595Z,16.88
2024-05-09T20:58:30.663Z,16.13
2024-05-09T21:03:38.219Z,13.68
2024-05-09T21:08:45.783Z,12.55
2024-05-09T21:13:50.536Z,13.35
2024-05-09T21:18:55.349Z,12.05
2024-05-09T21:24:02.892Z,12.57
2024-05-09T21:29:07.670Z,11.77
2024-05-09T21:34:12.670Z,11.27
2024-05-09T21:39:20.070Z,11.00
2024-05-09T21:44:24.905Z,11.00
2024-05-09T21:49:29.822Z,11.97
2024-05-09T21:54:37.396Z,11.40
2024-05-09T21:59:42.565Z,12.60
2024-05-09T22:04:47.785Z,12.67
2024-05-09T22:09:55.297Z,11.93
2024-05-09T22:15:03.303Z,11.57
2024-05-09T22:20:17.906Z,13.13
2024-05-09T22:25:31.088Z,13.07
2024-05-09T22:30:39.436Z,12.80
2024-05-09T22:35:45.402Z,13.00
2024-05-09T22:40:53.244Z,13.50
2024-05-09T22:45:58.111Z,12.50
2024-05-09T22:51:02.850Z,13.10
2024-05-09T22:56:10.940Z,14.20
2024-05-09T23:01:17.886Z,14.07
2024-05-09T23:06:22.776Z,14.23
2024-05-09T23:11:30.262Z,13.83
2024-05-09T23:16:35.112Z,14.60
2024-05-09T23:21:41.519Z,16.33
2024-05-09T23:26:48.951Z,15.13
2024-05-09T23:31:53.879Z,15.17
2024-05-09T23:36:58.669Z,14.23
2024-05-09T23:42:06.774Z,15.37
2024-05-09T23:47:11.671Z,16.40
2024-05-09T23:52:16.646Z,14.97
2024-05-09T23:57:24.489Z,17.17
